sensor_id;sensor_type;location;lat;lon;timestamp;P1;durP1;ratioP1;P2;durP2;ratioP2
63581;SDS011;49727;51.078;17.066;2023-04-16T00:06:07;22.40;;;13.30;;
63581;SDS011;49727;51.078;17.066;2023-04-16T00:21:09;27.30;;;15.50;;
63581;SDS011;49727;51.078;17.066;2023-04-16T00:36:10;21.05;;;12.02;;
63581;SDS011;49727;51.078;17.066;2023-04-16T00:51:10;24.88;;;15.60;;
63581;SDS011;49727;51.078;17.066;2023-04-16T01:06:11;26.35;;;18.85;;
63581;SDS011;49727;51.078;17.066;2023-04-16T01:21:11;29.02;;;17.98;;
63581;SDS011;49727;51.078;17.066;2023-04-16T01:36:12;28.85;;;18.05;;
63581;SDS011;49727;51.078;17.066;2023-04-16T01:51:12;32.35;;;21.88;;
63581;SDS011;49727;51.078;17.066;2023-04-16T02:06:12;30.65;;;20.65;;
63581;SDS011;49727;51.078;17.066;2023-04-16T02:21:13;27.57;;;18.23;;
63581;SDS011;49727;51.078;17.066;2023-04-16T02:36:14;28.42;;;17.58;;
63581;SDS011;49727;51.078;17.066;2023-04-16T02:51:14;36.65;;;21.08;;
63581;SDS011;49727;51.078;17.066;2023-04-16T03:06:14;29.25;;;18.38;;
63581;SDS011;49727;51.078;17.066;2023-04-16T03:21:15;28.40;;;15.82;;
63581;SDS011;49727;51.078;17.066;2023-04-16T03:36:15;28.17;;;16.77;;
63581;SDS011;49727;51.078;17.066;2023-04-16T03:51:15;26.58;;;16.83;;
63581;SDS011;49727;51.078;17.066;2023-04-16T04:06:16;33.08;;;18.13;;
63581;SDS011;49727;51.078;17.066;2023-04-16T04:21:17;28.02;;;18.13;;
63581;SDS011;49727;51.078;17.066;2023-04-16T04:36:17;28.50;;;17.30;;
63581;SDS011;49727;51.078;17.066;2023-04-16T04:51:17;26.85;;;15.98;;
63581;SDS011;49727;51.078;17.066;2023-04-16T05:06:18;27.52;;;16.35;;
63581;SDS011;49727;51.078;17.066;2023-04-16T05:21:18;28.33;;;18.48;;
63581;SDS011;49727;51.078;17.066;2023-04-16T05:36:18;28.80;;;17.08;;
63581;SDS011;49727;51.078;17.066;2023-04-16T05:51:19;29.38;;;18.85;;
63581;SDS011;49727;51.078;17.066;2023-04-16T06:06:21;28.03;;;16.97;;
63581;SDS011;49727;51.078;17.066;2023-04-16T06:21:22;26.10;;;17.35;;
63581;SDS011;49727;51.078;17.066;2023-04-16T06:36:22;26.05;;;18.15;;
63581;SDS011;49727;51.078;17.066;2023-04-16T06:51:23;23.50;;;15.93;;
63581;SDS011;49727;51.078;17.066;2023-04-16T07:06:23;24.55;;;15.55;;
63581;SDS011;49727;51.078;17.066;2023-04-16T07:21:23;21.65;;;14.98;;
63581;SDS011;49727;51.078;17.066;2023-04-16T07:36:25;24.17;;;14.63;;
63581;SDS011;49727;51.078;17.066;2023-04-16T08:06:27;22.05;;;14.95;;
63581;SDS011;49727;51.078;17.066;2023-04-16T08:21:27;18.67;;;13.27;;
63581;SDS011;49727;51.078;17.066;2023-04-16T08:36:29;11.90;;;8.70;;
63581;SDS011;49727;51.078;17.066;2023-04-16T08:51:32;9.15;;;5.32;;
63581;SDS011;49727;51.078;17.066;2023-04-16T09:06:34;6.83;;;4.10;;
63581;SDS011;49727;51.078;17.066;2023-04-16T09:21:35;10.37;;;7.80;;
63581;SDS011;49727;51.078;17.066;2023-04-16T09:36:36;9.35;;;5.97;;
63581;SDS011;49727;51.078;17.066;2023-04-16T11:04:57;4.97;;;2.70;;
63581;SDS011;49727;51.078;17.066;2023-04-16T11:19:57;5.30;;;2.50;;
63581;SDS011;49727;51.078;17.066;2023-04-16T11:34:58;2.53;;;1.60;;
63581;SDS011;49727;51.078;17.066;2023-04-16T11:50:19;2.77;;;1.10;;
63581;SDS011;49727;51.078;17.066;2023-04-16T12:20:40;3.93;;;2.50;;
63581;SDS011;49727;51.078;17.066;2023-04-16T12:35:41;5.30;;;3.20;;
63581;SDS011;49727;51.078;17.066;2023-04-16T12:50:42;5.03;;;2.40;;
63581;SDS011;49727;51.078;17.066;2023-04-16T13:05:43;3.83;;;2.30;;
63581;SDS011;49727;51.078;17.066;2023-04-16T13:20:44;4.07;;;2.17;;
63581;SDS011;49727;51.078;17.066;2023-04-16T13:35:44;4.63;;;2.50;;
63581;SDS011;49727;51.078;17.066;2023-04-16T13:50:44;5.10;;;2.90;;
63581;SDS011;49727;51.078;17.066;2023-04-16T14:05:45;5.50;;;3.15;;
63581;SDS011;49727;51.078;17.066;2023-04-16T14:20:46;5.70;;;2.33;;
63581;SDS011;49727;51.078;17.066;2023-04-16T14:35:46;4.25;;;2.33;;
63581;SDS011;49727;51.078;17.066;2023-04-16T14:50:46;4.90;;;2.50;;
63581;SDS011;49727;51.078;17.066;2023-04-16T15:05:47;3.65;;;2.22;;
63581;SDS011;49727;51.078;17.066;2023-04-16T15:20:53;4.87;;;2.67;;
63581;SDS011;49727;51.078;17.066;2023-04-16T15:35:54;4.70;;;2.53;;
63581;SDS011;49727;51.078;17.066;2023-04-16T15:50:54;4.57;;;2.08;;
63581;SDS011;49727;51.078;17.066;2023-04-16T16:05:55;4.53;;;2.60;;
63581;SDS011;49727;51.078;17.066;2023-04-16T16:20:56;5.75;;;2.78;;
63581;SDS011;49727;51.078;17.066;2023-04-16T16:35:56;5.20;;;3.63;;
63581;SDS011;49727;51.078;17.066;2023-04-16T16:50:57;5.45;;;3.15;;
63581;SDS011;49727;51.078;17.066;2023-04-16T17:05:57;6.20;;;4.22;;
63581;SDS011;49727;51.078;17.066;2023-04-16T17:20:57;5.50;;;3.10;;
63581;SDS011;49727;51.078;17.066;2023-04-16T17:35:58;5.22;;;2.53;;
63581;SDS011;49727;51.078;17.066;2023-04-16T17:50:58;6.95;;;2.97;;
63581;SDS011;49727;51.078;17.066;2023-04-16T18:05:58;7.13;;;2.95;;
63581;SDS011;49727;51.078;17.066;2023-04-16T18:20:59;5.63;;;3.95;;
63581;SDS011;49727;51.078;17.066;2023-04-16T18:36:00;6.63;;;4.18;;
63581;SDS011;49727;51.078;17.066;2023-04-16T18:51:01;8.50;;;5.07;;
63581;SDS011;49727;51.078;17.066;2023-04-16T19:06:01;6.90;;;4.28;;
63581;SDS011;49727;51.078;17.066;2023-04-16T19:21:01;7.68;;;4.85;;
63581;SDS011;49727;51.078;17.066;2023-04-16T19:36:02;11.40;;;6.80;;
63581;SDS011;49727;51.078;17.066;2023-04-16T19:51:02;11.80;;;7.53;;
63581;SDS011;49727;51.078;17.066;2023-04-16T20:06:04;13.87;;;8.70;;
63581;SDS011;49727;51.078;17.066;2023-04-16T20:21:06;14.27;;;9.40;;
63581;SDS011;49727;51.078;17.066;2023-04-16T20:36:07;11.93;;;8.00;;
63581;SDS011;49727;51.078;17.066;2023-04-16T20:51:08;14.02;;;9.18;;
63581;SDS011;49727;51.078;17.066;2023-04-16T21:06:09;14.50;;;9.32;;
63581;SDS011;49727;51.078;17.066;2023-04-16T21:21:13;13.73;;;8.20;;
63581;SDS011;49727;51.078;17.066;2023-04-16T21:36:14;13.57;;;9.00;;
63581;SDS011;49727;51.078;17.066;2023-04-16T21:51:14;26.42;;;19.25;;
63581;SDS011;49727;51.078;17.066;2023-04-16T22:06:14;16.08;;;9.27;;
63581;SDS011;49727;51.078;17.066;2023-04-16T22:21:15;13.13;;;8.50;;
63581;SDS011;49727;51.078;17.066;2023-04-16T22:36:16;14.90;;;9.70;;
63581;SDS011;49727;51.078;17.066;2023-04-16T22:51:16;15.80;;;10.38;;
63581;SDS011;49727;51.078;17.066;2023-04-16T23:06:16;18.58;;;10.45;;
63581;SDS011;49727;51.078;17.066;2023-04-16T23:21:17;16.42;;;11.18;;
63581;SDS011;49727;51.078;17.066;2023-04-16T23:36:17;21.73;;;13.00;;
63581;SDS011;49727;51.078;17.066;2023-04-16T23:51:17;19.70;;;12.80;;
